Time;durP1;ratioP1;P1;durP2;ratioP2;P2;SDS_P1;SDS_P2;PMS_P1;PMS_P2;Temp;Humidity;BMP_temperature;BMP_pressure;BME280_temperature;BME280_humidity;BME280_pressure;Samples;Min_cycle;Max_cycle;Signal;HPM_P1;HPM_P2
2024/01/16 00:00:54;;;;;;;15.20;1.63;;;-0.90;99.90;;;;;;5014615;28;20038;-83
2024/01/16 00:03:23;;;;;;;12.40;1.40;;;-0.90;99.90;;;;;;5014005;28;20172;-83
2024/01/16 00:05:48;;;;;;;9.93;1.38;;;-0.90;99.90;;;;;;4988378;28;20105;-83
2024/01/16 00:08:14;;;;;;;5.97;1.55;;;-0.80;99.90;;;;;;5004568;28;20045;-83
2024/01/16 00:10:40;;;;;;;7.30;1.00;;;0.40;99.90;;;;;;5027689;28;20049;-83
2024/01/16 00:13:06;;;;;;;8.93;1.17;;;-0.70;99.90;;;;;;5015622;28;20057;-84
2024/01/16 00:15:31;;;;;;;2.47;0.77;;;-0.80;99.90;;;;;;5015885;28;20404;-83
2024/01/16 00:17:57;;;;;;;6.13;1.08;;;0.90;99.90;;;;;;5026441;28;20116;-84
2024/01/16 00:20:25;;;;;;;12.75;1.40;;;-0.90;99.90;;;;;;5014375;28;20057;-84
2024/01/16 00:22:50;;;;;;;8.25;1.52;;;0.80;99.90;;;;;;5012338;28;20053;-82
2024/01/16 00:25:19;;;;;;;6.90;1.23;;;-0.70;99.90;;;;;;5007618;28;20057;-82
2024/01/16 00:27:47;;;;;;;4.32;0.90;;;-0.60;99.90;;;;;;4996372;28;20057;-84
2024/01/16 00:30:13;;;;;;;2.35;0.43;;;-0.70;99.90;;;;;;5004385;28;20555;-83
2024/01/16 00:32:39;;;;;;;3.20;0.60;;;-0.50;99.90;;;;;;5004827;28;20081;-84
2024/01/16 00:35:05;;;;;;;4.32;0.80;;;-0.70;99.90;;;;;;5003927;28;20038;-83
2024/01/16 00:37:30;;;;;;;3.92;0.93;;;-0.40;99.90;;;;;;5012843;28;20053;-84
2024/01/16 00:39:56;;;;;;;6.72;0.70;;;-0.50;99.90;;;;;;5033431;28;20065;-82
2024/01/16 00:42:22;;;;;;;11.88;0.90;;;1.10;99.90;;;;;;5026800;28;20124;-86
2024/01/16 00:44:49;;;;;;;5.47;0.57;;;-0.40;99.90;;;;;;5003711;28;20056;-83
2024/01/16 00:47:14;;;;;;;7.88;0.77;;;-0.40;99.90;;;;;;5008796;28;20062;-84
2024/01/16 00:49:42;;;;;;;8.75;0.90;;;-0.50;99.90;;;;;;5029540;28;20116;-83
2024/01/16 00:52:07;;;;;;;6.80;0.73;;;-0.60;99.90;;;;;;5021667;28;20049;-83
2024/01/16 00:54:33;;;;;;;10.15;1.00;;;-0.50;99.90;;;;;;5003877;28;20053;-82
2024/01/16 00:56:59;;;;;;;11.52;1.00;;;-0.50;99.90;;;;;;5022985;28;20058;-83
2024/01/16 00:59:28;;;;;;;8.85;1.20;;;-0.30;99.90;;;;;;5032777;28;20041;-83
2024/01/16 01:01:54;;;;;;;6.13;0.98;;;0.50;99.90;;;;;;5024344;28;20118;-83
2024/01/16 01:04:20;;;;;;;10.48;0.60;;;-0.50;99.90;;;;;;5011534;28;20046;-82
2024/01/16 01:06:45;;;;;;;9.70;0.90;;;-0.40;99.90;;;;;;5009624;28;20072;-83
2024/01/16 01:09:11;;;;;;;9.32;1.25;;;-0.70;99.90;;;;;;5023018;28;20132;-82
2024/01/16 01:11:38;;;;;;;10.55;1.95;;;-0.70;99.90;;;;;;5032482;28;20057;-82
2024/01/16 01:14:04;;;;;;;8.32;1.13;;;1.00;99.90;;;;;;5024258;28;20056;-82
2024/01/16 01:16:30;;;;;;;9.80;0.95;;;0.90;99.90;;;;;;5006141;28;20045;-83
2024/01/16 01:18:55;;;;;;;4.88;0.88;;;-0.70;99.90;;;;;;5008392;28;20146;-82
2024/01/16 01:21:21;;;;;;;8.63;1.17;;;-0.90;99.90;;;;;;5021960;28;20042;-83
2024/01/16 01:23:47;;;;;;;9.15;1.52;;;-0.90;99.90;;;;;;5014146;28;20060;-83
2024/01/16 01:26:13;;;;;;;9.43;1.20;;;-1.00;99.90;;;;;;5024933;28;20057;-82
2024/01/16 01:28:40;;;;;;;6.47;1.08;;;-0.90;99.90;;;;;;5023307;28;20104;-83
2024/01/16 01:31:09;;;;;;;14.45;1.15;;;-0.90;99.90;;;;;;5023858;28;20049;-83
2024/01/16 01:33:35;;;;;;;7.97;0.85;;;-1.00;99.90;;;;;;5023595;28;20393;-82
2024/01/16 01:36:00;;;;;;;8.18;1.15;;;-1.10;99.90;;;;;;5006462;28;20103;-84
2024/01/16 01:38:27;;;;;;;9.45;1.33;;;-1.00;99.90;;;;;;5006510;28;20057;-83
2024/01/16 01:40:52;;;;;;;9.30;1.10;;;0.40;99.90;;;;;;5021608;28;20045;-83
2024/01/16 01:43:20;;;;;;;11.68;1.63;;;-1.00;99.90;;;;;;5009707;28;20061;-83
2024/01/16 01:46:11;;;;;;;16.38;1.52;;;-1.20;99.90;;;;;;5023701;28;20045;-83
2024/01/16 01:48:41;;;;;;;7.03;1.38;;;-0.80;99.90;;;;;;5030623;28;20128;-84
2024/01/16 01:51:08;;;;;;;6.20;1.10;;;-0.80;99.90;;;;;;5013210;28;20042;-83
2024/01/16 01:53:35;;;;;;;6.90;1.08;;;-0.90;99.90;;;;;;5012744;28;20056;-83
2024/01/16 01:56:07;;;;;;;7.68;1.20;;;0.40;99.90;;;;;;5012673;28;20046;-83
2024/01/16 01:58:34;;;;;;;3.53;1.70;;;-0.50;99.90;;;;;;5012741;28;20141;-81
2024/01/16 02:01:02;;;;;;;12.00;1.05;;;-0.60;99.90;;;;;;5028417;28;20050;-82
2024/01/16 02:03:32;;;;;;;11.98;1.13;;;-0.50;99.90;;;;;;5024372;28;20072;-83
2024/01/16 02:05:59;;;;;;;8.40;1.10;;;-0.50;99.90;;;;;;5014680;28;20049;-82
2024/01/16 02:08:25;;;;;;;4.40;1.08;;;0.60;99.90;;;;;;5032255;28;20061;-82
2024/01/16 02:10:50;;;;;;;7.18;1.90;;;-0.60;99.90;;;;;;5017248;28;20148;-82
2024/01/16 02:13:20;;;;;;;6.30;1.00;;;-0.20;99.90;;;;;;4994730;28;20050;-82
2024/01/16 02:15:46;;;;;;;13.35;1.05;;;0.70;99.90;;;;;;5018198;28;20053;-82
2024/01/16 02:18:12;;;;;;;6.78;1.10;;;-0.60;99.90;;;;;;5015029;28;20504;-82
2024/01/16 02:20:37;;;;;;;5.60;1.00;;;-0.70;99.90;;;;;;5010956;28;20140;-82
2024/01/16 02:23:04;;;;;;;7.22;1.00;;;-0.70;99.90;;;;;;5014206;28;20142;-83
2024/01/16 02:25:30;;;;;;;7.97;1.25;;;-0.70;99.90;;;;;;5013335;28;20085;-82
2024/01/16 02:27:56;;;;;;;4.70;0.50;;;1.00;99.90;;;;;;5032103;28;20125;-82
2024/01/16 02:30:21;;;;;;;6.47;1.08;;;-0.60;99.90;;;;;;5031949;28;20133;-82
2024/01/16 02:32:47;;;;;;;11.95;0.85;;;-0.80;99.90;;;;;;5023243;28;20077;-81
2024/01/16 02:35:15;;;;;;;8.32;1.52;;;-0.80;99.90;;;;;;5031828;28;20045;-82
2024/01/16 02:37:40;;;;;;;6.68;1.00;;;-1.00;99.90;;;;;;5013364;28;20500;-82
2024/01/16 02:40:07;;;;;;;9.25;1.15;;;-0.40;99.90;;;;;;5011911;28;20050;-82
2024/01/16 02:42:33;;;;;;;11.80;1.38;;;-0.80;99.90;;;;;;5013906;28;20060;-81
2024/01/16 02:44:58;;;;;;;12.45;0.90;;;-0.80;99.90;;;;;;4994050;28;20061;-82
2024/01/16 02:47:24;;;;;;;8.18;0.93;;;-0.80;99.90;;;;;;5024586;28;20050;-82
2024/01/16 02:49:50;;;;;;;8.70;0.98;;;-0.90;99.90;;;;;;5011222;28;20111;-82
2024/01/16 02:52:16;;;;;;;8.93;0.98;;;-1.00;99.90;;;;;;5012257;28;20489;-81
2024/01/16 02:54:41;;;;;;;7.72;1.17;;;-0.80;99.90;;;;;;5014119;28;20049;-82
2024/01/16 02:57:07;;;;;;;13.25;1.02;;;-1.00;99.90;;;;;;5020178;28;20061;-82
2024/01/16 02:59:33;;;;;;;12.88;0.98;;;-1.10;99.90;;;;;;5007621;28;20046;-82
2024/01/16 03:01:59;;;;;;;12.13;1.30;;;0.20;99.90;;;;;;5013764;28;20064;-82
2024/01/16 03:04:24;;;;;;;11.70;1.00;;;-1.10;99.90;;;;;;5012894;28;20060;-82
2024/01/16 03:06:50;;;;;;;8.70;0.88;;;-1.00;99.90;;;;;;5031349;28;20053;-82
2024/01/16 03:09:15;;;;;;;4.45;1.10;;;-1.00;99.90;;;;;;5030967;28;20468;-81
2024/01/16 03:11:41;;;;;;;10.15;1.45;;;-1.10;99.90;;;;;;5013709;28;20100;-82
2024/01/16 03:14:07;;;;;;;9.95;1.08;;;-1.00;99.90;;;;;;5030051;28;20038;-82
2024/01/16 03:16:33;;;;;;;12.65;1.08;;;-1.30;99.90;;;;;;5004814;28;20046;-81
2024/01/16 03:18:58;;;;;;;6.15;0.77;;;-1.20;99.90;;;;;;5013161;28;20053;-82
2024/01/16 03:21:24;;;;;;;8.23;1.35;;;-1.10;99.90;;;;;;5030972;28;20041;-81
2024/01/16 03:23:53;;;;;;;6.68;1.17;;;-1.30;99.90;;;;;;5025627;28;20041;-81
2024/01/16 03:26:18;;;;;;;6.80;1.08;;;-1.20;99.90;;;;;;5011320;28;20065;-82
2024/01/16 03:28:45;;;;;;;8.20;1.65;;;-1.20;99.90;;;;;;5026492;28;20732;-81
2024/01/16 03:31:15;;;;;;;6.78;1.20;;;-1.20;99.90;;;;;;5008019;28;20042;-81
2024/01/16 03:33:42;;;;;;;7.85;1.13;;;-1.20;99.90;;;;;;5021649;28;20508;-81
2024/01/16 03:36:12;;;;;;;7.70;1.05;;;-1.20;99.90;;;;;;5012861;28;20050;-82
2024/01/16 03:38:38;;;;;;;13.07;1.08;;;-1.20;99.90;;;;;;5002886;28;20099;-81
2024/01/16 03:41:06;;;;;;;10.57;1.00;;;-1.20;99.90;;;;;;5026266;28;20081;-81
2024/01/16 03:43:35;;;;;;;15.05;1.42;;;-1.40;99.90;;;;;;4996218;28;20061;-81
2024/01/16 03:46:01;;;;;;;13.63;1.70;;;-1.40;99.90;;;;;;5000041;28;20107;-81
2024/01/16 03:48:27;;;;;;;8.45;0.98;;;-1.30;99.90;;;;;;5012706;28;20053;-82
2024/01/16 03:50:54;;;;;;;12.57;2.05;;;-0.30;99.90;;;;;;5023323;28;20126;-81
2024/01/16 03:53:20;;;;;;;8.85;1.40;;;-1.30;99.90;;;;;;4990451;28;20052;-80
2024/01/16 03:55:52;;;;;;;12.57;1.40;;;-1.30;99.90;;;;;;5030258;28;20042;-81
2024/01/16 03:58:19;;;;;;;9.32;0.80;;;-1.40;99.90;;;;;;5043284;28;20053;-81
2024/01/16 04:00:46;;;;;;;9.68;1.27;;;-1.20;99.90;;;;;;4986703;28;20461;-81
2024/01/16 04:03:13;;;;;;;11.48;1.63;;;-1.20;99.90;;;;;;5003117;28;20050;-81
2024/01/16 04:05:38;;;;;;;7.22;0.90;;;0.20;99.90;;;;;;4993499;28;20132;-81
2024/01/16 04:08:04;;;;;;;4.82;0.75;;;-1.30;99.90;;;;;;5026076;28;20575;-81
2024/01/16 04:10:30;;;;;;;11.30;1.30;;;-1.20;99.90;;;;;;5029749;28;20037;-81
2024/01/16 04:12:55;;;;;;;12.55;1.23;;;-1.20;99.90;;;;;;4995835;28;20481;-81
2024/01/16 04:15:22;;;;;;;7.82;1.10;;;-1.30;99.90;;;;;;5029188;28;20091;-81
2024/01/16 04:17:48;;;;;;;17.95;1.27;;;-1.20;99.90;;;;;;5029873;28;20103;-80
2024/01/16 04:20:13;;;;;;;9.48;1.25;;;0.30;99.90;;;;;;5009406;28;20049;-81
2024/01/16 04:22:40;;;;;;;5.78;0.95;;;-1.20;99.90;;;;;;5003612;28;20123;-81
2024/01/16 04:25:08;;;;;;;5.22;0.80;;;-1.10;99.90;;;;;;5011126;28;20125;-81
2024/01/16 04:27:33;;;;;;;8.45;1.13;;;0.20;99.90;;;;;;5014566;28;20430;-81
2024/01/16 04:30:00;;;;;;;16.08;1.23;;;-1.20;99.90;;;;;;5003463;28;20549;-80
2024/01/16 04:32:25;;;;;;;13.02;1.20;;;-1.10;99.90;;;;;;5009317;28;20145;-81
2024/01/16 04:34:51;;;;;;;11.52;1.30;;;-1.20;99.90;;;;;;5011790;28;20543;-81
2024/01/16 04:37:17;;;;;;;12.43;1.08;;;-1.10;99.90;;;;;;5012965;28;20081;-82
2024/01/16 04:39:42;;;;;;;13.80;0.82;;;-1.00;99.90;;;;;;5021391;28;20041;-80
2024/01/16 04:42:08;;;;;;;10.30;1.60;;;-0.90;99.90;;;;;;5021713;28;20049;-81
2024/01/16 04:44:34;;;;;;;10.15;1.20;;;0.60;99.90;;;;;;5004448;28;20066;-81
2024/01/16 04:47:00;;;;;;;7.28;0.90;;;-0.90;99.90;;;;;;5029318;28;20053;-81
2024/01/16 04:49:25;;;;;;;5.90;1.10;;;-0.90;99.90;;;;;;5001206;28;20061;-80
2024/01/16 04:51:51;;;;;;;8.43;0.90;;;-0.80;99.90;;;;;;5030160;28;20042;-81
2024/01/16 04:54:17;;;;;;;10.00;1.50;;;-1.00;99.90;;;;;;5009779;28;20045;-81
2024/01/16 04:56:42;;;;;;;8.82;1.20;;;-0.80;99.90;;;;;;5011771;28;20050;-81
2024/01/16 04:59:08;;;;;;;9.73;2.38;;;-0.90;99.90;;;;;;5010098;28;20049;-80
2024/01/16 05:01:33;;;;;;;8.93;1.08;;;-1.00;99.90;;;;;;5027720;28;21495;-81
2024/01/16 05:03:59;;;;;;;7.38;0.98;;;-0.90;99.90;;;;;;5032159;28;20084;-82
2024/01/16 05:06:25;;;;;;;7.93;0.93;;;-0.90;99.90;;;;;;4999280;28;20078;-81
2024/01/16 05:08:51;;;;;;;8.48;1.00;;;-0.70;99.90;;;;;;5009846;28;20444;-82
2024/01/16 05:11:16;;;;;;;10.10;1.23;;;-0.90;99.90;;;;;;5025707;28;20099;-82
2024/01/16 05:13:42;;;;;;;11.10;1.13;;;-0.70;99.90;;;;;;5026539;28;20081;-82
2024/01/16 05:16:08;;;;;;;13.30;1.17;;;-0.80;99.90;;;;;;5025075;28;20085;-80
2024/01/16 05:18:33;;;;;;;8.43;1.23;;;-0.70;99.90;;;;;;5014667;28;20125;-82
2024/01/16 05:20:59;;;;;;;7.53;1.15;;;-0.80;99.90;;;;;;5017316;28;20042;-82
2024/01/16 05:23:25;;;;;;;11.27;1.50;;;-0.70;99.90;;;;;;5006979;28;20045;-81
2024/01/16 05:25:50;;;;;;;13.13;1.00;;;-0.70;99.90;;;;;;5027512;28;20041;-81
2024/01/16 05:28:16;;;;;;;10.23;1.63;;;-0.60;99.90;;;;;;5028160;28;20175;-83
2024/01/16 05:30:42;;;;;;;11.75;0.90;;;-0.70;99.90;;;;;;5006190;28;20401;-82
2024/01/16 05:33:08;;;;;;;9.05;1.67;;;-0.50;99.90;;;;;;5027896;28;20393;-83
2024/01/16 05:35:34;;;;;;;9.98;1.52;;;-0.60;99.90;;;;;;5014507;28;20053;-82
2024/01/16 05:37:59;;;;;;;10.82;1.58;;;-0.50;99.90;;;;;;5014821;28;20056;-82
2024/01/16 05:40:26;;;;;;;7.53;1.02;;;-0.50;99.90;;;;;;5018803;28;20412;-82
2024/01/16 05:42:52;;;;;;;11.25;1.27;;;-0.50;99.90;;;;;;5031892;28;20072;-82
2024/01/16 05:45:18;;;;;;;11.07;2.08;;;-0.50;99.90;;;;;;5031331;28;20077;-82
2024/01/16 05:47:44;;;;;;;7.55;1.10;;;-0.40;99.90;;;;;;5011132;28;20390;-84
2024/01/16 05:50:10;;;;;;;9.38;1.50;;;-0.60;99.90;;;;;;5026408;28;20049;-82
2024/01/16 05:52:36;;;;;;;10.43;1.30;;;-0.50;99.90;;;;;;5031705;28;20037;-81
2024/01/16 05:55:02;;;;;;;15.75;1.38;;;-0.60;99.90;;;;;;5031742;28;20678;-82
2024/01/16 05:57:31;;;;;;;5.03;0.73;;;-0.50;99.90;;;;;;5031509;28;20077;-81
2024/01/16 05:59:57;;;;;;;12.27;1.17;;;-0.40;99.90;;;;;;4997401;28;20481;-82
2024/01/16 06:02:23;;;;;;;9.07;1.00;;;1.20;99.90;;;;;;5014116;28;20049;-81
2024/01/16 06:04:48;;;;;;;9.98;1.48;;;-0.40;99.90;;;;;;5032110;28;20087;-81
2024/01/16 06:07:14;;;;;;;9.50;1.58;;;-0.60;99.90;;;;;;5019561;28;20049;-82
2024/01/16 06:09:40;;;;;;;10.88;0.95;;;-0.40;99.90;;;;;;5014273;28;20049;-81
2024/01/16 06:12:07;;;;;;;7.97;1.50;;;-0.40;99.90;;;;;;5013755;28;20057;-82
2024/01/16 06:14:33;;;;;;;6.95;1.30;;;-0.40;99.90;;;;;;5014433;28;20169;-82
2024/01/16 06:16:59;;;;;;;7.30;1.50;;;-0.50;99.90;;;;;;5031846;28;20052;-81
2024/01/16 06:19:24;;;;;;;9.82;1.70;;;-0.50;99.90;;;;;;4994834;28;20054;-82
2024/01/16 06:21:50;;;;;;;8.50;1.48;;;-0.60;99.90;;;;;;5019587;28;20438;-81
2024/01/16 06:24:16;;;;;;;8.90;1.40;;;-0.50;99.90;;;;;;5022960;28;20038;-82
2024/01/16 06:26:42;;;;;;;10.38;2.03;;;-0.50;99.90;;;;;;5031643;28;20041;-81
2024/01/16 06:29:08;;;;;;;13.23;1.30;;;-0.50;99.90;;;;;;5029919;28;20046;-81
2024/01/16 06:31:34;;;;;;;8.35;1.33;;;-0.50;99.90;;;;;;5013488;28;20183;-81
2024/01/16 06:33:59;;;;;;;12.93;1.50;;;-0.50;99.90;;;;;;5024072;28;20053;-81
2024/01/16 06:36:25;;;;;;;16.65;1.90;;;-0.60;99.90;;;;;;5026561;28;20041;-81
2024/01/16 06:38:51;;;;;;;12.43;1.90;;;-0.70;99.90;;;;;;5030986;28;20073;-82
2024/01/16 06:41:16;;;;;;;9.45;1.20;;;-0.70;99.90;;;;;;5031112;28;20088;-80
2024/01/16 06:43:42;;;;;;;19.63;2.00;;;0.00;99.90;;;;;;5013194;28;20515;-81
2024/01/16 06:46:08;;;;;;;8.80;1.45;;;-0.70;99.90;;;;;;4995898;28;20054;-82
2024/01/16 06:48:37;;;;;;;11.88;1.50;;;-0.60;99.90;;;;;;5029514;28;20557;-80
2024/01/16 06:51:03;;;;;;;9.93;1.10;;;0.90;99.90;;;;;;4990699;28;20053;-81
2024/01/16 06:53:29;;;;;;;13.07;1.00;;;-0.60;99.90;;;;;;5031025;28;20080;-83
2024/01/16 06:55:55;;;;;;;7.18;1.10;;;-0.50;99.90;;;;;;5008525;28;20092;-82
2024/01/16 06:58:20;;;;;;;10.55;1.48;;;0.90;99.90;;;;;;4993437;28;20049;-82
2024/01/16 07:00:47;;;;;;;8.43;1.30;;;-0.70;99.90;;;;;;5028459;28;20033;-83
2024/01/16 07:03:13;;;;;;;8.23;0.77;;;-0.90;99.90;;;;;;5030850;28;20156;-81
2024/01/16 07:05:40;;;;;;;9.90;1.48;;;-0.90;99.90;;;;;;5004568;28;20054;-83
2024/01/16 07:08:07;;;;;;;5.03;0.82;;;-0.70;99.90;;;;;;5026266;28;20046;-82
2024/01/16 07:10:33;;;;;;;3.63;0.93;;;-0.70;99.90;;;;;;5018903;28;20038;-81
2024/01/16 07:12:59;;;;;;;7.60;0.95;;;-0.80;99.90;;;;;;5011190;28;20053;-81
2024/01/16 07:15:25;;;;;;;6.68;1.00;;;-0.80;99.90;;;;;;5025759;28;20042;-82
2024/01/16 07:17:51;;;;;;;7.80;1.23;;;-0.80;99.90;;;;;;5019034;28;20045;-81
2024/01/16 07:20:16;;;;;;;9.80;1.42;;;-0.80;99.90;;;;;;5005287;28;20393;-82
2024/01/16 07:22:42;;;;;;;9.00;1.48;;;-0.80;99.90;;;;;;5016368;28;20038;-82
2024/01/16 07:25:08;;;;;;;6.82;1.45;;;-0.80;99.90;;;;;;5001337;28;20050;-82
2024/01/16 07:27:34;;;;;;;8.00;1.30;;;0.60;99.90;;;;;;4997380;28;20041;-82
2024/01/16 07:30:00;;;;;;;14.05;1.30;;;-0.80;99.90;;;;;;5014357;28;20041;-82
2024/01/16 07:32:26;;;;;;;5.43;1.73;;;0.20;99.90;;;;;;5010955;28;20136;-81
2024/01/16 07:34:52;;;;;;;5.47;1.42;;;-0.80;99.90;;;;;;5007155;28;20132;-81
2024/01/16 07:37:18;;;;;;;5.60;1.17;;;-0.80;99.90;;;;;;5013492;28;20119;-78
2024/01/16 07:39:44;;;;;;;6.95;1.20;;;-0.80;99.90;;;;;;5004118;28;20041;-81
2024/01/16 07:42:10;;;;;;;13.02;1.73;;;-0.70;99.90;;;;;;5023660;28;20497;-81
2024/01/16 07:44:36;;;;;;;6.30;1.00;;;-0.70;99.90;;;;;;5029253;28;20717;-81
2024/01/16 07:47:02;;;;;;;11.82;1.65;;;-0.70;99.90;;;;;;5004158;28;20057;-81
2024/01/16 07:49:28;;;;;;;6.88;1.10;;;-0.70;99.90;;;;;;5002879;28;20057;-81
2024/01/16 07:51:53;;;;;;;4.93;1.23;;;-0.70;99.90;;;;;;5001012;28;20080;-81
2024/01/16 07:54:19;;;;;;;7.43;1.15;;;0.40;99.90;;;;;;5000304;28;20076;-82
2024/01/16 07:56:45;;;;;;;9.23;1.15;;;-0.80;99.90;;;;;;5019422;28;20056;-80
2024/01/16 07:59:10;;;;;;;9.98;0.90;;;-0.70;99.90;;;;;;5000398;28;20053;-82
2024/01/16 08:01:37;;;;;;;6.18;1.15;;;-0.70;99.90;;;;;;5018752;28;20042;-83
2024/01/16 08:04:03;;;;;;;16.65;1.23;;;-0.60;99.90;;;;;;5029953;28;20099;-81
2024/01/16 08:06:29;;;;;;;4.68;0.93;;;-0.50;99.90;;;;;;5004436;28;20046;-83
2024/01/16 08:08:55;;;;;;;3.88;0.60;;;-0.50;99.90;;;;;;5002205;28;20451;-81
2024/01/16 08:11:21;;;;;;;5.05;0.88;;;-0.50;99.90;;;;;;5001140;28;20042;-81
2024/01/16 08:13:47;;;;;;;19.73;1.40;;;-0.50;99.90;;;;;;5022773;28;20060;-80
2024/01/16 08:16:13;;;;;;;5.18;0.93;;;-0.50;99.90;;;;;;5008343;28;20439;-81
2024/01/16 08:18:38;;;;;;;8.73;1.40;;;-0.40;99.90;;;;;;5008936;28;20521;-82
2024/01/16 08:21:04;;;;;;;10.73;1.00;;;0.90;99.90;;;;;;5023023;28;20385;-81
2024/01/16 08:23:30;;;;;;;11.52;0.80;;;-0.40;99.90;;;;;;5026934;28;20058;-82
2024/01/16 08:25:55;;;;;;;11.32;1.50;;;-0.50;99.90;;;;;;5025275;28;20033;-81
2024/01/16 08:28:24;;;;;;;4.40;0.93;;;-0.30;99.90;;;;;;5022178;28;20434;-81
2024/01/16 08:30:49;;;;;;;3.90;0.60;;;-0.30;99.90;;;;;;5021349;28;20077;-82
2024/01/16 08:33:15;;;;;;;5.95;0.90;;;-0.20;99.90;;;;;;5005152;28;20084;-80
2024/01/16 08:35:41;;;;;;;7.45;1.20;;;-0.20;99.90;;;;;;5007118;28;20045;-82
2024/01/16 08:38:06;;;;;;;9.05;1.10;;;0.00;99.90;;;;;;5024416;28;20053;-82
2024/01/16 08:40:32;;;;;;;6.35;1.35;;;0.00;99.90;;;;;;5003809;28;20157;-80
2024/01/16 08:42:58;;;;;;;7.55;1.10;;;0.00;99.90;;;;;;5015200;28;20049;-84
2024/01/16 08:45:25;;;;;;;10.02;1.85;;;0.10;99.90;;;;;;5012592;28;20072;-81
2024/01/16 08:47:51;;;;;;;5.45;0.70;;;0.20;99.90;;;;;;4998425;28;20107;-81
2024/01/16 08:50:17;;;;;;;10.98;1.38;;;0.20;99.90;;;;;;4990204;28;20432;-81
2024/01/16 08:52:42;;;;;;;3.63;0.82;;;2.00;99.90;;;;;;5012289;28;20049;-81
2024/01/16 08:55:09;;;;;;;8.32;1.20;;;0.20;99.90;;;;;;5027576;28;20045;-81
2024/01/16 08:57:36;;;;;;;8.40;1.17;;;0.30;99.90;;;;;;5014451;28;20060;-80
2024/01/16 09:00:06;;;;;;;7.38;1.05;;;0.20;99.90;;;;;;5014637;28;20130;-83
2024/01/16 09:02:32;;;;;;;6.80;1.00;;;0.40;99.90;;;;;;5024177;28;20056;-81
2024/01/16 09:04:58;;;;;;;5.75;1.05;;;0.30;99.90;;;;;;5012908;28;20042;-82
2024/01/16 09:07:25;;;;;;;10.55;1.02;;;1.00;99.90;;;;;;5021639;28;20049;-82
2024/01/16 09:09:50;;;;;;;4.30;1.02;;;0.30;99.90;;;;;;5013539;28;20478;-82
2024/01/16 09:12:16;;;;;;;4.70;1.00;;;0.30;99.90;;;;;;5015247;28;20063;-81
2024/01/16 09:14:42;;;;;;;6.97;0.95;;;0.30;99.90;;;;;;5032950;28;20041;-81
2024/01/16 09:17:07;;;;;;;6.18;1.48;;;0.20;99.90;;;;;;5014970;28;20377;-80
2024/01/16 09:19:33;;;;;;;5.10;0.77;;;1.10;99.90;;;;;;5031728;28;20540;-83
2024/01/16 09:21:59;;;;;;;5.00;0.90;;;0.30;99.90;;;;;;5006259;28;20049;-81
2024/01/16 09:24:25;;;;;;;5.18;1.42;;;0.30;99.90;;;;;;5024390;28;20076;-84
2024/01/16 09:26:51;;;;;;;4.07;0.70;;;0.20;99.90;;;;;;5024377;28;20530;-81
2024/01/16 09:29:16;;;;;;;7.82;1.35;;;0.30;99.90;;;;;;5014797;28;20132;-81
2024/01/16 09:31:42;;;;;;;15.50;1.27;;;0.30;99.90;;;;;;5030799;28;20116;-80
2024/01/16 09:34:08;;;;;;;6.47;0.90;;;0.40;99.90;;;;;;5028512;28;20113;-78
2024/01/16 09:36:36;;;;;;;7.88;0.80;;;0.40;99.90;;;;;;5009968;28;20053;-79
2024/01/16 09:39:07;;;;;;;2.88;0.70;;;0.40;99.90;;;;;;5014465;28;20045;-79
2024/01/16 09:41:34;;;;;;;6.53;0.60;;;0.50;99.90;;;;;;5031792;28;20044;-79
2024/01/16 09:44:00;;;;;;;4.03;0.70;;;0.50;99.90;;;;;;5023524;28;20053;-80
2024/01/16 09:46:26;;;;;;;10.20;0.82;;;0.50;99.90;;;;;;5012585;28;20523;-80
2024/01/16 09:48:55;;;;;;;5.13;0.90;;;0.60;99.90;;;;;;5027547;28;20054;-83
2024/01/16 09:51:20;;;;;;;4.07;0.70;;;0.50;99.90;;;;;;5002301;28;20050;-82
2024/01/16 09:53:46;;;;;;;8.65;1.10;;;0.50;99.90;;;;;;5030229;28;20099;-82
2024/01/16 09:56:16;;;;;;;6.28;0.98;;;2.10;99.90;;;;;;5023856;28;20041;-82
2024/01/16 09:58:44;;;;;;;4.50;0.90;;;0.70;99.90;;;;;;5005944;28;20096;-82
2024/01/16 10:01:11;;;;;;;7.20;1.00;;;0.70;99.90;;;;;;5023161;28;20038;-83
2024/01/16 10:03:38;;;;;;;4.55;0.75;;;0.80;99.90;;;;;;5020593;28;20126;-83
2024/01/16 10:06:06;;;;;;;9.27;1.90;;;0.90;99.90;;;;;;4988711;28;20052;-82
2024/01/16 10:08:31;;;;;;;5.63;0.90;;;1.00;99.90;;;;;;4990183;28;20420;-83
2024/01/16 10:10:58;;;;;;;6.10;1.02;;;0.90;99.90;;;;;;5021440;28;20041;-82
2024/01/16 10:13:24;;;;;;;3.75;1.08;;;1.00;99.90;;;;;;5025813;28;20050;-81
2024/01/16 10:15:55;;;;;;;8.48;1.13;;;1.00;99.90;;;;;;5014728;28;20049;-84
2024/01/16 10:18:24;;;;;;;6.43;1.10;;;1.00;99.90;;;;;;5005974;28;20068;-83
2024/01/16 10:20:50;;;;;;;7.60;1.13;;;1.00;99.90;;;;;;5027841;28;20655;-84
2024/01/16 10:23:26;;;;;;;6.47;1.30;;;1.00;99.90;;;;;;5019341;28;20081;-81
2024/01/16 10:26:11;;;;;;;2.83;1.45;;;1.00;99.90;;;;;;4994061;28;20049;-82
2024/01/16 10:28:38;;;;;;;;;;;1.00;99.90;;;;;;5025458;28;20045;-82
2024/01/16 10:31:08;;;;;;;4.40;1.25;;;0.90;99.90;;;;;;5005089;28;19943;-82
2024/01/16 10:33:34;;;;;;;6.50;1.30;;;0.80;99.90;;;;;;5019659;28;20474;-82
2024/01/16 10:36:16;;;;;;;6.25;1.83;;;1.90;99.90;;;;;;5001952;28;20042;-81
2024/01/16 10:38:44;;;;;;;5.93;1.30;;;1.00;99.90;;;;;;5023681;28;20045;-82
2024/01/16 10:41:17;;;;;;;10.02;1.83;;;0.80;99.90;;;;;;5022613;28;20046;-85
2024/01/16 10:43:44;;;;;;;7.18;1.50;;;1.00;99.90;;;;;;5023351;28;20459;-84
2024/01/16 10:46:13;;;;;;;4.93;1.88;;;1.00;99.90;;;;;;5012791;28;20045;-82
2024/01/16 10:48:59;;;;;;;7.38;2.13;;;0.90;99.90;;;;;;5030048;28;20163;-81
2024/01/16 10:51:27;;;;;;;7.50;2.22;;;0.90;99.90;;;;;;5022168;28;20054;-81
2024/01/16 10:54:08;;;;;;;10.70;2.42;;;2.40;99.90;;;;;;5008923;28;20120;-83
2024/01/16 10:56:34;;;;;;;7.22;2.90;;;1.00;99.90;;;;;;5028199;28;20054;-81
2024/01/16 10:59:21;;;;;;;13.63;2.90;;;2.30;99.90;;;;;;5022480;28;20115;-80
2024/01/16 11:01:51;;;;;;;10.80;2.78;;;1.00;99.90;;;;;;5020265;28;20492;-83
2024/01/16 11:04:19;;;;;;;4.40;2.10;;;0.90;99.90;;;;;;5019999;28;20052;-82
2024/01/16 11:06:46;;;;;;;4.38;1.63;;;2.20;99.90;;;;;;5024892;28;20038;-82
2024/01/16 11:09:16;;;;;;;4.40;1.40;;;0.90;99.90;;;;;;5022824;28;20045;-83
2024/01/16 11:11:45;;;;;;;4.30;1.73;;;1.00;99.90;;;;;;4996458;28;20053;-81
2024/01/16 11:14:15;;;;;;;7.13;1.65;;;0.90;99.90;;;;;;5005356;28;20128;-83
2024/01/16 11:16:42;;;;;;;8.30;1.23;;;2.30;99.90;;;;;;5030111;28;20045;-83
2024/01/16 11:19:09;;;;;;;1.58;0.75;;;0.80;99.90;;;;;;5031089;28;20045;-87
2024/01/16 11:21:36;;;;;;;5.53;1.50;;;0.60;99.90;;;;;;4987900;28;20052;-83
2024/01/16 11:24:02;;;;;;;2.22;0.90;;;0.70;99.90;;;;;;5030755;28;20052;-83
2024/01/16 11:26:39;;;;;;;3.03;1.10;;;0.80;99.90;;;;;;5021905;28;20042;-84
2024/01/16 11:29:27;;;;;;;2.60;0.90;;;0.70;99.90;;;;;;5029972;28;20037;-81
2024/01/16 11:31:53;;;;;;;5.97;1.08;;;0.70;99.90;;;;;;5011481;28;20056;-83
2024/01/16 11:34:41;;;;;;;5.03;0.82;;;0.80;99.90;;;;;;5011060;28;20076;-82
2024/01/16 11:37:12;;;;;;;3.33;1.08;;;0.70;99.90;;;;;;5001459;28;20092;-83
2024/01/16 11:39:38;;;;;;;7.00;1.20;;;0.70;99.90;;;;;;5018377;28;20045;-82
2024/01/16 11:42:04;;;;;;;4.38;0.90;;;2.10;99.90;;;;;;5027146;28;20060;-83
2024/01/16 11:44:56;;;;;;;3.78;1.10;;;0.80;99.90;;;;;;5030494;28;20116;-82
2024/01/16 11:47:23;;;;;;;9.52;1.50;;;0.80;99.90;;;;;;5000441;28;20081;-83
2024/01/16 11:50:11;;;;;;;5.75;1.17;;;2.00;99.90;;;;;;5005494;28;20524;-83
2024/01/16 11:52:42;;;;;;;3.75;1.25;;;0.90;99.90;;;;;;5013261;28;20459;-83
2024/01/16 11:55:30;;;;;;;7.38;2.03;;;0.90;99.90;;;;;;5028623;28;20073;-83
2024/01/16 11:58:14;;;;;;;5.45;1.15;;;0.90;99.90;;;;;;5022387;28;20580;-82
2024/01/16 12:00:44;;;;;;;7.22;1.65;;;2.20;99.90;;;;;;4994428;28;20100;-83
2024/01/16 12:03:13;;;;;;;5.32;1.42;;;1.00;99.90;;;;;;5028249;28;20483;-82
2024/01/16 12:05:38;;;;;;;7.95;1.92;;;1.00;99.90;;;;;;5031097;28;20057;-81
2024/01/16 12:08:06;;;;;;;11.20;2.08;;;1.00;99.90;;;;;;5005597;28;20132;-81
2024/01/16 12:10:31;;;;;;;6.00;1.75;;;1.10;99.90;;;;;;5016155;28;20060;-83
2024/01/16 12:12:59;;;;;;;5.75;1.58;;;1.10;99.90;;;;;;5013180;28;20037;-81
2024/01/16 12:15:25;;;;;;;15.05;1.90;;;2.60;99.90;;;;;;5028113;28;20787;-81
2024/01/16 12:18:01;;;;;;;9.43;1.48;;;1.60;99.90;;;;;;5013701;28;20136;-82
2024/01/16 12:20:32;;;;;;;4.47;1.50;;;1.80;99.90;;;;;;5010603;28;20129;-82
2024/01/16 12:23:05;;;;;;;4.82;1.35;;;1.90;99.90;;;;;;5005257;28;20038;-82
2024/01/16 12:25:33;;;;;;;6.60;1.42;;;2.00;99.90;;;;;;5016372;28;20534;-81
2024/01/16 12:28:03;;;;;;;7.13;1.80;;;1.90;99.90;;;;;;5033732;28;20049;-81
2024/01/16 12:30:37;;;;;;;10.20;1.80;;;1.90;99.90;;;;;;5013863;28;20068;-82
2024/01/16 12:33:07;;;;;;;12.32;2.22;;;2.50;99.90;;;;;;5033632;28;20056;-82
2024/01/16 12:35:37;;;;;;;10.45;2.53;;;2.10;99.90;;;;;;5033379;28;20045;-82
2024/01/16 12:38:11;;;;;;;10.10;2.47;;;2.20;99.90;;;;;;5017421;28;20072;-82
2024/01/16 12:40:39;;;;;;;12.05;3.20;;;2.30;99.90;;;;;;5021714;28;20037;-82
2024/01/16 12:43:11;;;;;;;8.00;2.58;;;2.40;99.90;;;;;;5021743;28;20038;-81
2024/01/16 12:45:37;;;;;;;8.45;2.60;;;2.50;99.90;;;;;;5020881;28;20054;-82
2024/01/16 12:48:04;;;;;;;10.63;2.65;;;2.50;99.90;;;;;;5009900;28;20053;-82